الصفحة الرئيسية
METAR-TAF:

METAR-TAF

مطار :

ليتشي, إيطاليا

دائرة عرض: 40-14N, خط طول: 018-09E, ارتفاع: 48 متر

مراقبة الطقس الحالي

تاريخ ووقت الإصدار 51 دقيقة قبل الساعة 19:55UTC
ريح 3 عقدة من الشمال/الشمال الشرقي
درجة الحرارة 16°درجة مئوية
الرطوبة 94%
ضغط 1017 hPa
الرؤية 10 كم أو أكثر
غيوم قليلة على ارتفاع 5000 قدم

METAR: LIBN 291955Z 03003KT 9999 FEW050 16/15 Q1017 RMK FEW VIS MIN 9999 WIND THR14 04004KT WIND THR32 04003KT BLU

زمن: 22:46 (20:46 UTC)

توقعات

تاريخ ووقت الإصدار 6ساعات و 46 دقيقة قبل الساعة 14:00UTC
التوقعات صالحة من29 الساعة 15 UTC إلى 29 الساعة 24 UTC
ريح 7 عقدة من الشمال الغربي
الرؤية 10 كم أو أكثر
غيوم متفرقة على ارتفاع 2000 قدم

TAF: LIBN 291400Z 2915/2924 31007KT 9999 SCT020

أرصاد الطقس والتوقعات من أكثر من 4000 مطار (تقارير الطقس للمطار METAR والتنبؤ بالطقس بالمطارTAF).

المحطات المتاحة هي النقط الصفراء والحمراء على الخريطة.

حرك المؤشر فوق النقطة لمعرفة اسم المحطة.

ثم انقر لمعرفة أرصاد وتوقعات الطقس.

لتغيير الخارطة: اضغط على الأزرار الخضراء مع رمز الصليب الأسود للتكبير. على الزر الأخضر مع شرطة للتصغير، أو على الأسهم الخضراء للخرائط المجاورة.


METAR-TAF: